Manuel Derqui, Argentina
Current Conditions -  °F | °C
As of 9:00 AM on Friday 24 Oct 2014 (Local Time) from SARC Reporting Station
Clear Clear  
Wind Chill: 84°   Ceiling: Unl
Heat Index: 86°   Visibility: 5mi
Dew Point: 64°   Wind: 5mph
Humidity: 51%   Direction: 80°E
Pressure: 29.91"   Gusts: NA
Location:  27.83°S, 58.8°W
Report Text: SARC 241200Z 08004KT 020V150 8000 NSC29/18 Q1013
Loading
Personal Weather Stations






























Interactive Weather Map
Tropical Storm Tracking
New forecast layout! Learn more

10-Day Weather Forecast

Advertisements
Track Severe Weather on mobile